Time;durP1;ratioP1;P1;durP2;ratioP2;P2;SDS_P1;SDS_P2;PMS_P1;PMS_P2;Temp;Humidity;BMP_temperature;BMP_pressure;BME280_temperature;BME280_humidity;BME280_pressure;Samples;Min_cycle;Max_cycle;Signal;HPM_P1;HPM_P2
2021/09/24 00:01:49;;;;;;;1.63;1.33;;;20.00;65.20;;;;;;5075862;28;20067;-78
2021/09/24 00:04:15;;;;;;;3.65;1.63;;;19.90;65.20;;;;;;5059165;28;20035;-78
2021/09/24 00:06:42;;;;;;;2.13;1.42;;;19.90;65.20;;;;;;5059156;28;20031;-78
2021/09/24 00:09:09;;;;;;;2.55;1.50;;;19.90;65.30;;;;;;5094123;28;20046;-79
2021/09/24 00:11:35;;;;;;;1.77;1.38;;;19.90;65.20;;;;;;5058709;28;20048;-78
2021/09/24 00:14:02;;;;;;;1.92;1.40;;;19.90;65.20;;;;;;5075745;28;20043;-81
2021/09/24 00:16:28;;;;;;;1.35;1.25;;;19.90;65.30;;;;;;5059698;28;20506;-78
2021/09/24 00:18:54;;;;;;;2.63;1.45;;;19.90;65.20;;;;;;5076641;28;20024;-78
2021/09/24 00:21:19;;;;;;;2.25;1.40;;;19.90;65.30;;;;;;5076065;28;20047;-79
2021/09/24 00:23:45;;;;;;;2.03;1.50;;;19.90;65.30;;;;;;5042543;28;20508;-78
2021/09/24 00:26:11;;;;;;;1.52;1.42;;;19.90;65.30;;;;;;5093906;28;20028;-78
2021/09/24 00:28:37;;;;;;;1.73;1.35;;;19.80;65.20;;;;;;5059097;28;20132;-78
2021/09/24 00:31:03;;;;;;;2.78;1.33;;;19.90;65.30;;;;;;5059187;28;20040;-78
2021/09/24 00:33:28;;;;;;;1.63;1.35;;;19.90;65.30;;;;;;5075287;28;20032;-79
2021/09/24 00:35:55;;;;;;;3.13;1.60;;;19.80;65.30;;;;;;5058515;28;20039;-79
2021/09/24 00:38:25;;;;;;;2.33;1.50;;;19.90;65.30;;;;;;5075469;28;20375;-78
2021/09/24 00:40:51;;;;;;;1.80;1.38;;;19.80;65.30;;;;;;5076280;28;20368;-79
2021/09/24 00:43:17;;;;;;;2.78;1.60;;;19.80;65.30;;;;;;5059021;28;20024;-78
2021/09/24 00:45:43;;;;;;;2.38;1.30;;;19.80;65.30;;;;;;5075392;28;20503;-78
2021/09/24 00:48:10;;;;;;;1.38;1.15;;;19.80;65.30;;;;;;5075658;28;20061;-78
2021/09/24 00:50:36;;;;;;;2.30;1.33;;;19.80;65.30;;;;;;5093179;28;20490;-78
2021/09/24 00:53:02;;;;;;;1.42;1.27;;;19.80;65.30;;;;;;5075419;28;20118;-78
2021/09/24 00:55:29;;;;;;;3.70;1.38;;;19.80;65.30;;;;;;5075196;28;20116;-78
2021/09/24 00:57:55;;;;;;;1.50;1.20;;;19.70;65.30;;;;;;5075385;28;20599;-79
2021/09/24 01:00:21;;;;;;;2.47;1.50;;;19.80;65.40;;;;;;5058670;28;20040;-78
2021/09/24 01:02:48;;;;;;;2.45;1.58;;;19.70;65.40;;;;;;5096548;28;20032;-78
2021/09/24 01:05:15;;;;;;;2.20;1.40;;;19.70;65.30;;;;;;5062556;28;20032;-78
2021/09/24 01:07:43;;;;;;;3.05;1.40;;;19.70;65.40;;;;;;5079259;28;20077;-78
2021/09/24 01:10:11;;;;;;;1.65;1.20;;;19.70;65.40;;;;;;5096739;28;20052;-79
2021/09/24 01:12:38;;;;;;;2.55;1.45;;;19.70;65.40;;;;;;5063393;28;20526;-78
2021/09/24 01:15:07;;;;;;;2.75;1.42;;;19.70;65.40;;;;;;5079289;28;20031;-78
2021/09/24 01:17:32;;;;;;;2.17;1.38;;;19.70;65.40;;;;;;5079295;28;20020;-77
2021/09/24 01:19:59;;;;;;;2.42;1.35;;;19.70;65.40;;;;;;5078874;28;20031;-78
2021/09/24 01:22:25;;;;;;;2.45;1.40;;;19.70;65.40;;;;;;5096861;28;20412;-78
2021/09/24 01:24:51;;;;;;;1.48;1.25;;;19.70;65.40;;;;;;5096754;28;20024;-78
2021/09/24 01:27:17;;;;;;;2.35;1.40;;;19.70;65.40;;;;;;5045948;28;20028;-78
2021/09/24 01:29:43;;;;;;;3.10;1.50;;;19.60;65.40;;;;;;5078754;28;20039;-78
2021/09/24 01:32:08;;;;;;;2.40;1.63;;;19.60;65.40;;;;;;5028942;28;20028;-78
2021/09/24 01:34:34;;;;;;;1.40;1.25;;;19.60;65.40;;;;;;5078472;28;20495;-78
2021/09/24 01:37:00;;;;;;;3.20;1.60;;;19.60;65.40;;;;;;5078947;28;20031;-78
2021/09/24 01:39:26;;;;;;;2.20;1.50;;;19.60;65.40;;;;;;5078187;28;20462;-78
2021/09/24 01:41:52;;;;;;;2.97;1.42;;;19.60;65.40;;;;;;5096734;28;20058;-79
2021/09/24 01:44:18;;;;;;;1.98;1.48;;;19.60;65.40;;;;;;5046308;28;20372;-78
2021/09/24 01:46:46;;;;;;;1.95;1.40;;;19.60;65.50;;;;;;5096915;28;20020;-78
2021/09/24 01:49:12;;;;;;;2.10;1.45;;;19.60;65.50;;;;;;5061646;28;20480;-81
2021/09/24 01:51:41;;;;;;;2.40;1.50;;;19.60;65.50;;;;;;5045256;28;20400;-78
2021/09/24 01:54:07;;;;;;;2.17;1.48;;;19.60;66.20;;;;;;5078115;28;20214;-78
2021/09/24 01:56:33;;;;;;;1.90;1.40;;;19.60;65.50;;;;;;5078574;28;20024;-79
2021/09/24 01:58:59;;;;;;;1.42;1.20;;;19.60;65.50;;;;;;5078268;28;20384;-78
2021/09/24 02:01:25;;;;;;;1.60;1.23;;;19.60;65.50;;;;;;5078362;28;20110;-78
2021/09/24 02:03:51;;;;;;;1.77;1.40;;;19.50;65.50;;;;;;5045062;28;20028;-78
2021/09/24 02:06:16;;;;;;;3.13;1.50;;;19.60;65.60;;;;;;5096790;28;20475;-78
2021/09/24 02:08:43;;;;;;;1.77;1.40;;;19.60;65.60;;;;;;5096222;28;20110;-78
2021/09/24 02:11:11;;;;;;;1.95;1.40;;;19.50;65.50;;;;;;5061368;28;20048;-78
2021/09/24 02:13:41;;;;;;;1.95;1.30;;;19.50;65.50;;;;;;5044501;28;20115;-78
2021/09/24 02:16:08;;;;;;;2.15;1.40;;;19.50;65.60;;;;;;5078190;28;20028;-79
2021/09/24 02:18:34;;;;;;;1.83;1.25;;;19.50;65.50;;;;;;5061214;28;20020;-77
2021/09/24 02:21:00;;;;;;;2.35;1.30;;;19.50;65.60;;;;;;5078621;28;20028;-77
2021/09/24 02:23:26;;;;;;;1.95;1.38;;;19.50;65.60;;;;;;5078486;28;20449;-78
2021/09/24 02:25:52;;;;;;;2.75;1.60;;;19.50;65.60;;;;;;5061106;28;20024;-78
2021/09/24 02:28:18;;;;;;;1.60;1.20;;;19.50;65.60;;;;;;5061003;28;20131;-78
2021/09/24 02:30:43;;;;;;;1.40;1.25;;;19.50;65.60;;;;;;5095442;28;20036;-77
2021/09/24 02:33:09;;;;;;;2.42;1.40;;;19.50;65.60;;;;;;5060874;28;20107;-78
2021/09/24 02:35:35;;;;;;;2.35;1.70;;;19.50;65.60;;;;;;5095930;28;20047;-78
2021/09/24 02:38:00;;;;;;;2.60;1.42;;;19.50;65.60;;;;;;5061027;28;20495;-78
2021/09/24 02:40:26;;;;;;;2.03;1.40;;;19.50;65.60;;;;;;5095311;28;20028;-78
2021/09/24 02:42:52;;;;;;;1.98;1.45;;;19.40;65.60;;;;;;5061038;28;20103;-79
2021/09/24 02:45:18;;;;;;;1.98;1.27;;;19.50;65.70;;;;;;5060355;28;20364;-80
2021/09/24 02:47:44;;;;;;;2.28;1.33;;;19.40;65.60;;;;;;5060467;28;20048;-78
2021/09/24 02:50:11;;;;;;;1.63;1.25;;;19.40;65.60;;;;;;5060784;28;20024;-78
2021/09/24 02:52:37;;;;;;;1.65;1.20;;;19.40;65.60;;;;;;5077155;28;20092;-78
2021/09/24 02:55:05;;;;;;;2.83;1.38;;;19.40;65.70;;;;;;5077431;28;20016;-77
2021/09/24 02:57:30;;;;;;;2.75;1.40;;;19.40;65.80;;;;;;5060587;28;20361;-78
2021/09/24 02:59:56;;;;;;;2.22;1.60;;;19.40;65.70;;;;;;5077022;28;20043;-77
2021/09/24 03:02:22;;;;;;;1.58;1.27;;;19.40;65.70;;;;;;5095328;28;20110;-79
2021/09/24 03:04:48;;;;;;;2.33;1.50;;;19.40;65.70;;;;;;5060727;28;20080;-77
2021/09/24 03:07:13;;;;;;;3.88;1.67;;;19.40;65.70;;;;;;5077017;28;20047;-79
2021/09/24 03:09:39;;;;;;;2.30;1.50;;;19.40;65.70;;;;;;5077199;28;20055;-78
2021/09/24 03:12:06;;;;;;;2.08;1.33;;;19.40;65.80;;;;;;5060119;28;20048;-77
2021/09/24 03:14:32;;;;;;;1.80;1.30;;;19.40;65.80;;;;;;5077026;28;20031;-79
2021/09/24 03:16:58;;;;;;;2.70;1.50;;;19.40;65.80;;;;;;5076717;28;20036;-77
2021/09/24 03:19:24;;;;;;;1.88;1.42;;;19.40;65.80;;;;;;5095137;28;20035;-78
2021/09/24 03:21:50;;;;;;;1.92;1.33;;;19.40;65.80;;;;;;5076728;28;20039;-78
2021/09/24 03:24:17;;;;;;;1.65;1.20;;;19.40;65.80;;;;;;5076708;28;20024;-77
2021/09/24 03:26:43;;;;;;;2.70;1.25;;;19.40;65.80;;;;;;5026933;28;20128;-77
2021/09/24 03:29:09;;;;;;;1.60;1.40;;;19.30;65.70;;;;;;5076769;28;20024;-78
2021/09/24 03:31:40;;;;;;;1.77;1.40;;;19.30;65.70;;;;;;5076324;28;20438;-78
2021/09/24 03:34:07;;;;;;;1.30;1.20;;;19.30;65.80;;;;;;5076290;28;20024;-78
2021/09/24 03:36:34;;;;;;;2.47;1.35;;;19.30;65.80;;;;;;5076728;28;20036;-78
2021/09/24 03:39:00;;;;;;;2.28;1.33;;;19.30;65.80;;;;;;5095102;28;20028;-78
2021/09/24 03:41:26;;;;;;;2.40;1.40;;;19.30;65.80;;;;;;5076528;28;20028;-77
2021/09/24 03:43:52;;;;;;;1.63;1.15;;;19.30;65.80;;;;;;5076498;28;20024;-79
2021/09/24 03:46:18;;;;;;;1.70;1.42;;;19.30;65.80;;;;;;5060418;28;20024;-78
2021/09/24 03:48:44;;;;;;;2.05;1.30;;;19.30;65.80;;;;;;5059795;28;20035;-78
2021/09/24 03:51:10;;;;;;;1.50;1.40;;;19.30;65.80;;;;;;5076839;28;20479;-77
2021/09/24 03:53:36;;;;;;;2.53;1.48;;;19.30;65.90;;;;;;5059799;28;20384;-78
2021/09/24 03:56:03;;;;;;;2.15;1.60;;;19.30;65.80;;;;;;5076503;28;20039;-79
2021/09/24 03:58:28;;;;;;;1.77;1.48;;;19.30;65.90;;;;;;5075908;28;20020;-78
2021/09/24 04:00:55;;;;;;;3.17;1.50;;;19.20;65.80;;;;;;5058962;28;20078;-79
2021/09/24 04:03:21;;;;;;;1.92;1.45;;;19.20;65.80;;;;;;5059647;28;20028;-77
2021/09/24 04:05:47;;;;;;;2.03;1.67;;;19.30;65.90;;;;;;5059211;28;20147;-78
2021/09/24 04:08:13;;;;;;;2.50;1.80;;;19.20;65.90;;;;;;5076002;28;20457;-78
2021/09/24 04:10:40;;;;;;;2.60;1.83;;;19.20;65.90;;;;;;5093703;28;20102;-79
2021/09/24 04:13:06;;;;;;;3.03;1.92;;;19.20;65.90;;;;;;5076798;28;20032;-78
2021/09/24 04:15:32;;;;;;;3.03;2.13;;;19.20;65.90;;;;;;5058874;28;20111;-78
2021/09/24 04:17:58;;;;;;;3.40;2.05;;;19.20;65.90;;;;;;5059869;28;20085;-77
2021/09/24 04:20:23;;;;;;;4.60;2.53;;;19.20;65.90;;;;;;5058681;28;20032;-78
2021/09/24 04:22:49;;;;;;;3.28;2.40;;;19.20;65.90;;;;;;5075580;28;20024;-78
2021/09/24 04:25:15;;;;;;;3.92;2.40;;;19.20;66.00;;;;;;5093548;28;20108;-79
2021/09/24 04:27:41;;;;;;;3.83;2.40;;;19.20;66.00;;;;;;5058983;28;20028;-80
2021/09/24 04:30:07;;;;;;;4.05;2.80;;;19.20;66.00;;;;;;5058803;28;20062;-78
2021/09/24 04:32:33;;;;;;;5.00;2.90;;;19.10;66.00;;;;;;5058481;28;20056;-78
2021/09/24 04:35:00;;;;;;;4.25;2.78;;;19.20;66.00;;;;;;5093333;28;20107;-79
2021/09/24 04:37:27;;;;;;;6.18;3.38;;;19.10;66.00;;;;;;5074937;28;20024;-78
2021/09/24 04:39:52;;;;;;;4.47;3.22;;;19.10;66.00;;;;;;5075363;28;20017;-79
2021/09/24 04:42:18;;;;;;;4.45;3.20;;;19.10;66.00;;;;;;5075606;28;20480;-77
2021/09/24 04:44:44;;;;;;;5.15;3.50;;;19.20;66.10;;;;;;5042160;28;20040;-78
2021/09/24 04:47:10;;;;;;;7.07;3.72;;;19.20;66.10;;;;;;5093310;28;20479;-78
2021/09/24 04:49:36;;;;;;;5.50;3.88;;;19.10;66.00;;;;;;5058863;28;20051;-78
2021/09/24 04:52:02;;;;;;;5.60;4.07;;;19.10;66.10;;;;;;5076130;28;20540;-79
2021/09/24 04:54:28;;;;;;;5.03;3.88;;;19.10;66.10;;;;;;5075338;28;20028;-79
2021/09/24 04:56:53;;;;;;;6.25;4.60;;;19.10;66.10;;;;;;5058699;28;20123;-78
2021/09/24 04:59:19;;;;;;;5.57;4.05;;;19.10;66.10;;;;;;5059464;28;20067;-78
2021/09/24 05:01:45;;;;;;;6.07;4.75;;;19.10;66.10;;;;;;5075450;28;20024;-78
2021/09/24 05:04:11;;;;;;;6.40;4.70;;;19.10;66.10;;;;;;5093306;28;20025;-78
2021/09/24 05:06:36;;;;;;;6.35;4.45;;;19.10;66.10;;;;;;5075255;28;20044;-77
2021/09/24 05:09:02;;;;;;;6.65;4.50;;;19.10;66.10;;;;;;5059722;28;20024;-78
2021/09/24 05:11:28;;;;;;;5.50;4.10;;;19.10;66.10;;;;;;5058329;28;20044;-77
2021/09/24 05:13:54;;;;;;;6.95;4.50;;;19.00;66.10;;;;;;5075074;28;20028;-77
2021/09/24 05:16:20;;;;;;;6.68;4.15;;;19.10;66.20;;;;;;5058529;28;20052;-78
2021/09/24 05:18:45;;;;;;;7.05;5.28;;;19.10;66.20;;;;;;5092875;28;20029;-76
2021/09/24 05:21:11;;;;;;;6.93;5.32;;;19.10;66.20;;;;;;5058373;28;20036;-76
2021/09/24 05:23:37;;;;;;;6.82;5.10;;;19.00;66.10;;;;;;5058478;28;20028;-78
2021/09/24 05:26:04;;;;;;;7.50;4.93;;;19.00;66.10;;;;;;5074953;28;20028;-76
2021/09/24 05:28:30;;;;;;;9.00;5.90;;;19.10;66.20;;;;;;5074841;28;20035;-76
2021/09/24 05:30:55;;;;;;;7.13;5.28;;;19.00;66.20;;;;;;5074910;28;20036;-77
2021/09/24 05:33:21;;;;;;;6.85;5.07;;;19.00;66.20;;;;;;5058862;28;20368;-77
2021/09/24 05:35:47;;;;;;;7.57;5.32;;;19.00;66.10;;;;;;5093530;28;20028;-76
2021/09/24 05:38:13;;;;;;;7.15;5.57;;;19.10;66.20;;;;;;5093050;28;20376;-76
2021/09/24 05:40:39;;;;;;;7.57;5.53;;;19.10;66.30;;;;;;5075021;28;20039;-77
2021/09/24 05:43:05;;;;;;;8.30;5.97;;;19.10;66.20;;;;;;5093326;28;20036;-77
2021/09/24 05:45:31;;;;;;;8.10;5.80;;;19.10;66.20;;;;;;5075300;28;20134;-78
2021/09/24 05:47:56;;;;;;;7.90;5.30;;;19.10;66.20;;;;;;5059940;28;20473;-77
2021/09/24 05:50:23;;;;;;;7.88;5.80;;;19.10;66.30;;;;;;5078072;28;20039;-75
2021/09/24 05:52:53;;;;;;;9.35;6.30;;;19.00;66.20;;;;;;5078939;28;20400;-77
2021/09/24 05:55:21;;;;;;;9.35;6.38;;;19.00;66.30;;;;;;5062594;28;20068;-78
2021/09/24 05:57:49;;;;;;;8.20;5.88;;;19.00;66.30;;;;;;5096331;28;20055;-77
2021/09/24 06:00:17;;;;;;;8.77;5.95;;;19.00;66.20;;;;;;5078483;28;20085;-79
2021/09/24 06:02:44;;;;;;;8.98;5.88;;;19.00;66.30;;;;;;5061732;28;20027;-79
2021/09/24 06:05:10;;;;;;;9.13;6.22;;;19.00;66.30;;;;;;5077864;28;20035;-80
2021/09/24 06:07:37;;;;;;;8.25;6.45;;;19.10;66.30;;;;;;5061420;28;20032;-80
2021/09/24 06:10:04;;;;;;;8.65;6.00;;;19.00;66.30;;;;;;5078044;28;20107;-80
2021/09/24 06:12:30;;;;;;;9.50;6.45;;;19.00;66.30;;;;;;5078374;28;20037;-79
2021/09/24 06:15:00;;;;;;;9.10;6.43;;;19.00;66.30;;;;;;5044934;28;20385;-81
2021/09/24 06:17:27;;;;;;;7.93;5.85;;;19.00;66.30;;;;;;5046520;28;20114;-78
2021/09/24 06:19:53;;;;;;;9.02;6.20;;;19.10;66.30;;;;;;5077685;28;20020;-78
2021/09/24 06:22:19;;;;;;;8.68;6.57;;;19.00;66.30;;;;;;5096103;28;20044;-79
2021/09/24 06:24:45;;;;;;;10.07;6.15;;;19.10;66.40;;;;;;5061666;28;20376;-80
2021/09/24 06:27:14;;;;;;;9.25;6.60;;;19.00;66.50;;;;;;5045656;28;20115;-79
2021/09/24 06:29:45;;;;;;;8.63;6.35;;;19.10;66.40;;;;;;5077702;28;20166;-81
2021/09/24 06:32:13;;;;;;;9.88;7.10;;;19.00;66.40;;;;;;5096375;28;20039;-79
2021/09/24 06:34:39;;;;;;;9.50;6.95;;;19.10;66.40;;;;;;5095788;28;20020;-78
2021/09/24 06:37:05;;;;;;;8.85;6.68;;;19.00;66.40;;;;;;5077723;28;20537;-80
2021/09/24 06:39:31;;;;;;;9.68;6.70;;;19.10;66.50;;;;;;5061437;28;20059;-79
2021/09/24 06:41:57;;;;;;;11.85;6.70;;;19.10;66.50;;;;;;5060992;28;20161;-79
2021/09/24 06:44:23;;;;;;;9.68;6.93;;;19.10;66.50;;;;;;5060813;28;20028;-78
2021/09/24 06:46:49;;;;;;;10.07;7.30;;;19.10;67.20;;;;;;5060734;28;20361;-78
2021/09/24 06:49:16;;;;;;;9.55;7.28;;;19.00;66.50;;;;;;5044018;28;20034;-78
2021/09/24 06:51:42;;;;;;;10.10;7.30;;;19.10;66.60;;;;;;5077307;28;20032;-80
2021/09/24 06:54:08;;;;;;;10.80;7.50;;;19.10;66.60;;;;;;5060559;28;20032;-79
2021/09/24 06:56:35;;;;;;;10.38;6.97;;;19.10;66.60;;;;;;5027843;28;20475;-81
2021/09/24 06:59:01;;;;;;;9.75;7.20;;;19.10;66.60;;;;;;5027077;28;20032;-79
2021/09/24 07:01:28;;;;;;;10.25;7.50;;;19.10;66.60;;;;;;5060377;28;20035;-79
2021/09/24 07:03:54;;;;;;;8.77;6.50;;;19.10;66.60;;;;;;5060662;28;20024;-75
2021/09/24 07:06:19;;;;;;;9.95;7.13;;;19.10;66.60;;;;;;5060592;28;20097;-76
2021/09/24 07:08:45;;;;;;;11.15;7.38;;;19.10;66.70;;;;;;5095806;28;20035;-79
2021/09/24 07:11:11;;;;;;;9.02;7.05;;;19.10;66.60;;;;;;5076807;28;20048;-77
2021/09/24 07:13:37;;;;;;;10.65;7.13;;;19.10;66.60;;;;;;5043671;28;20032;-76
2021/09/24 07:16:05;;;;;;;10.30;7.55;;;19.10;66.60;;;;;;5060328;28;20408;-77
2021/09/24 07:18:31;;;;;;;10.93;7.97;;;19.10;66.70;;;;;;5076973;28;20032;-77
2021/09/24 07:20:57;;;;;;;8.88;6.68;;;19.10;66.60;;;;;;5094823;28;20457;-77
2021/09/24 07:23:23;;;;;;;10.68;7.55;;;19.10;66.60;;;;;;5060183;28;20031;-79
2021/09/24 07:25:50;;;;;;;10.75;7.65;;;19.10;66.70;;;;;;5043538;28;20426;-77
2021/09/24 07:28:16;;;;;;;9.75;6.95;;;19.10;66.70;;;;;;5076524;28;20020;-76
2021/09/24 07:30:42;;;;;;;10.85;7.70;;;19.10;66.70;;;;;;5076656;28;20035;-77
2021/09/24 07:33:08;;;;;;;9.77;7.22;;;19.10;66.70;;;;;;5060101;28;20126;-79
2021/09/24 07:35:34;;;;;;;8.88;6.68;;;19.10;66.70;;;;;;5059924;28;20471;-76
2021/09/24 07:38:00;;;;;;;9.35;7.22;;;19.10;66.80;;;;;;5076207;28;20077;-77
2021/09/24 07:40:27;;;;;;;10.27;7.70;;;19.10;66.70;;;;;;5094731;28;20028;-77
2021/09/24 07:42:54;;;;;;;9.75;7.10;;;19.10;66.70;;;;;;5043198;28;20031;-77
2021/09/24 07:45:20;;;;;;;10.25;7.25;;;19.20;66.80;;;;;;5076337;28;20024;-76
2021/09/24 07:47:46;;;;;;;10.18;7.20;;;19.10;66.70;;;;;;5059549;28;20490;-77
2021/09/24 07:50:12;;;;;;;10.60;7.38;;;19.20;66.80;;;;;;5059377;28;20107;-76
2021/09/24 07:52:38;;;;;;;9.20;6.82;;;19.10;66.80;;;;;;5094099;28;20041;-76
2021/09/24 07:55:05;;;;;;;9.82;6.93;;;19.20;66.80;;;;;;5059175;28;20510;-77
2021/09/24 07:57:31;;;;;;;9.98;7.32;;;19.20;66.80;;;;;;5075866;28;20038;-77
2021/09/24 07:59:56;;;;;;;9.80;7.60;;;19.20;66.70;;;;;;5076409;28;20110;-78
2021/09/24 08:02:22;;;;;;;9.98;7.75;;;19.20;66.80;;;;;;5094380;28;20077;-78
2021/09/24 08:04:48;;;;;;;9.77;6.82;;;19.20;66.70;;;;;;5059747;28;20032;-77
2021/09/24 08:07:14;;;;;;;9.05;6.90;;;19.20;66.70;;;;;;5059121;28;20031;-78
2021/09/24 08:09:40;;;;;;;10.20;7.68;;;19.20;66.70;;;;;;5059344;28;20032;-79
2021/09/24 08:12:06;;;;;;;10.25;7.45;;;19.20;66.70;;;;;;5071089;28;20482;-77
2021/09/24 08:14:31;;;;;;;10.95;7.78;;;19.20;66.70;;;;;;5055968;28;20052;-78
2021/09/24 08:16:57;;;;;;;9.95;7.53;;;19.30;66.80;;;;;;5072874;28;20060;-78
2021/09/24 08:19:24;;;;;;;11.45;7.63;;;19.30;66.80;;;;;;5072770;28;20081;-77
2021/09/24 08:21:50;;;;;;;10.98;7.97;;;19.30;66.80;;;;;;5072370;28;20036;-78
2021/09/24 08:24:16;;;;;;;11.10;8.23;;;19.30;66.80;;;;;;5055298;28;20127;-78
2021/09/24 08:26:42;;;;;;;10.45;7.68;;;19.30;66.80;;;;;;5056508;28;20175;-77
2021/09/24 08:29:08;;;;;;;12.02;7.88;;;19.30;66.80;;;;;;5072385;28;20039;-77
2021/09/24 08:31:34;;;;;;;12.48;8.43;;;19.30;66.80;;;;;;5073516;28;20036;-77
2021/09/24 08:34:00;;;;;;;11.77;8.18;;;19.30;66.80;;;;;;5055544;28;20028;-77
2021/09/24 08:36:27;;;;;;;11.57;8.38;;;19.30;66.80;;;;;;5073088;28;20032;-76
2021/09/24 08:38:53;;;;;;;11.57;8.32;;;19.30;66.80;;;;;;5072386;28;20025;-77
2021/09/24 08:41:23;;;;;;;11.68;8.57;;;19.30;66.80;;;;;;5073293;28;20048;-77
2021/09/24 08:43:49;;;;;;;12.10;8.13;;;19.30;66.80;;;;;;5055124;28;20028;-78
2021/09/24 08:46:16;;;;;;;12.30;8.45;;;19.40;66.80;;;;;;5055416;28;20033;-78
2021/09/24 08:48:44;;;;;;;11.15;7.80;;;19.40;66.80;;;;;;5055507;28;20377;-79
2021/09/24 08:51:10;;;;;;;11.05;7.72;;;19.40;66.80;;;;;;5054764;28;20041;-78
2021/09/24 08:53:36;;;;;;;10.93;8.25;;;19.40;66.80;;;;;;5055698;28;20029;-79
2021/09/24 08:56:03;;;;;;;11.43;8.23;;;19.40;66.80;;;;;;5073299;28;20074;-79
2021/09/24 08:58:30;;;;;;;12.38;8.45;;;19.40;66.80;;;;;;5072117;28;20128;-79
2021/09/24 09:00:56;;;;;;;12.15;8.27;;;19.40;66.80;;;;;;5072427;28;20032;-79
2021/09/24 09:03:22;;;;;;;11.63;8.35;;;19.40;66.80;;;;;;5073247;28;20112;-79
2021/09/24 09:05:53;;;;;;;11.40;8.07;;;19.50;66.80;;;;;;5071678;28;20123;-79
2021/09/24 09:08:27;;;;;;;11.50;8.65;;;19.50;66.90;;;;;;5071857;28;20036;-79
2021/09/24 09:10:57;;;;;;;12.40;8.80;;;19.50;66.80;;;;;;5081003;28;20057;-79
2021/09/24 09:13:38;;;;;;;11.10;7.72;;;19.50;66.80;;;;;;5075332;28;20043;-79
2021/09/24 09:16:13;;;;;;;11.75;7.97;;;19.50;66.80;;;;;;5075529;28;20021;-78
2021/09/24 09:18:41;;;;;;;12.50;8.73;;;19.60;66.80;;;;;;5075128;28;20028;-79
2021/09/24 09:21:10;;;;;;;11.85;8.32;;;19.60;66.80;;;;;;5075918;28;20035;-78
2021/09/24 09:23:39;;;;;;;13.43;9.00;;;19.60;66.80;;;;;;5096514;28;20036;-78
2021/09/24 09:26:10;;;;;;;11.43;8.32;;;19.60;66.80;;;;;;5062497;28;20107;-79
2021/09/24 09:28:49;;;;;;;12.40;8.60;;;19.60;66.80;;;;;;5062570;28;20077;-79
2021/09/24 09:31:28;;;;;;;11.48;7.68;;;19.60;66.80;;;;;;5062330;28;20480;-79
2021/09/24 09:34:01;;;;;;;12.50;8.45;;;19.70;66.90;;;;;;5097103;28;20023;-79
2021/09/24 09:36:45;;;;;;;10.45;8.20;;;19.70;66.80;;;;;;5078813;28;20540;-79
2021/09/24 09:39:13;;;;;;;12.40;8.23;;;19.70;66.90;;;;;;5062868;28;20173;-79
2021/09/24 09:41:51;;;;;;;10.75;7.72;;;19.70;66.80;;;;;;5062301;28;20028;-79
2021/09/24 09:44:29;;;;;;;11.85;7.93;;;19.80;66.90;;;;;;5078561;28;20030;-79
2021/09/24 09:46:56;;;;;;;11.35;7.95;;;19.80;66.90;;;;;;5078549;28;20400;-79
2021/09/24 09:49:24;;;;;;;11.18;8.10;;;19.80;66.80;;;;;;5061863;28;20084;-79
2021/09/24 09:52:04;;;;;;;11.55;8.18;;;19.90;66.90;;;;;;5078486;28;20036;-79
2021/09/24 09:54:32;;;;;;;12.68;8.45;;;19.90;66.90;;;;;;5096958;28;20052;-79
2021/09/24 09:57:19;;;;;;;10.73;8.02;;;19.90;66.90;;;;;;5061800;28;20488;-79
2021/09/24 09:59:53;;;;;;;11.43;8.07;;;20.00;67.00;;;;;;5061691;28;20039;-79
2021/09/24 10:02:29;;;;;;;10.57;7.10;;;20.00;66.80;;;;;;5061643;28;20035;-79
2021/09/24 10:04:57;;;;;;;10.32;7.07;;;20.00;66.80;;;;;;5096213;28;20111;-78
2021/09/24 10:07:29;;;;;;;11.25;7.65;;;20.10;66.80;;;;;;5061551;28;20035;-78
2021/09/24 10:10:14;;;;;;;9.20;7.28;;;20.10;66.70;;;;;;5079002;28;20032;-79
2021/09/24 10:12:41;;;;;;;9.98;7.20;;;20.10;66.70;;;;;;5074814;28;20040;-80
2021/09/24 10:15:09;;;;;;;9.75;7.30;;;20.20;66.60;;;;;;5075139;28;20477;-79
2021/09/24 10:17:34;;;;;;;9.50;7.35;;;20.20;66.50;;;;;;5075678;28;20029;-78
2021/09/24 10:20:01;;;;;;;11.20;7.72;;;20.20;66.50;;;;;;5074438;28;20032;-78
2021/09/24 10:22:27;;;;;;;9.98;7.50;;;20.30;66.50;;;;;;5057631;28;20036;-79
2021/09/24 10:24:57;;;;;;;9.35;6.88;;;20.30;66.40;;;;;;5075405;28;20495;-81
2021/09/24 10:27:34;;;;;;;9.25;6.80;;;20.40;66.40;;;;;;5074329;28;20029;-79
2021/09/24 10:30:10;;;;;;;9.30;6.60;;;20.40;66.40;;;;;;5057830;28;20031;-80
2021/09/24 10:32:37;;;;;;;8.43;6.68;;;20.40;66.30;;;;;;5074573;28;20402;-78
2021/09/24 10:35:11;;;;;;;9.75;7.03;;;20.40;66.30;;;;;;5073825;28;20116;-78
2021/09/24 10:37:40;;;;;;;9.65;6.65;;;20.50;66.40;;;;;;5075013;28;20032;-77
2021/09/24 10:40:27;;;;;;;9.23;7.25;;;20.50;66.30;;;;;;5073939;28;20029;-78
2021/09/24 10:42:58;;;;;;;9.77;6.80;;;20.50;66.40;;;;;;5074522;28;20378;-78
2021/09/24 10:45:39;;;;;;;8.93;6.38;;;20.60;66.80;;;;;;5074543;28;20056;-78
2021/09/24 10:48:16;;;;;;;8.35;6.68;;;20.60;66.20;;;;;;5074518;28;20427;-77
2021/09/24 10:51:02;;;;;;;8.68;6.32;;;20.60;66.20;;;;;;5076022;28;20032;-78
2021/09/24 10:53:39;;;;;;;8.23;6.32;;;20.70;66.20;;;;;;5074524;28;20111;-78
2021/09/24 10:56:05;;;;;;;8.20;5.90;;;20.70;66.10;;;;;;5074249;28;20033;-78
2021/09/24 10:58:30;;;;;;;8.23;6.28;;;20.70;66.00;;;;;;5057341;28;20080;-79
2021/09/24 11:01:01;;;;;;;7.82;6.13;;;20.80;66.00;;;;;;5057395;28;20494;-78
2021/09/24 11:03:29;;;;;;;7.65;6.10;;;20.80;66.10;;;;;;5075242;28;20033;-78
2021/09/24 11:05:56;;;;;;;7.65;6.38;;;20.90;66.10;;;;;;5057361;28;20170;-79
2021/09/24 11:08:36;;;;;;;7.47;5.80;;;20.90;66.00;;;;;;5056988;28;20020;-79
2021/09/24 11:11:03;;;;;;;6.88;5.22;;;20.90;66.10;;;;;;5073321;28;20044;-79
2021/09/24 11:13:30;;;;;;;8.57;6.47;;;21.00;66.00;;;;;;5074346;28;20469;-78
2021/09/24 11:16:05;;;;;;;7.50;5.72;;;21.00;65.90;;;;;;5073803;28;20028;-78
2021/09/24 11:18:53;;;;;;;7.03;5.22;;;21.00;66.00;;;;;;5073771;28;20020;-78
2021/09/24 11:21:32;;;;;;;7.50;5.60;;;21.10;66.00;;;;;;5073547;28;20045;-78
2021/09/24 11:24:00;;;;;;;7.15;5.13;;;21.10;65.90;;;;;;5056789;28;20037;-78
2021/09/24 11:26:32;;;;;;;7.80;5.65;;;21.10;65.90;;;;;;5073364;28;20055;-79
2021/09/24 11:29:12;;;;;;;7.38;5.43;;;21.20;65.90;;;;;;5056650;28;20477;-77
2021/09/24 11:31:56;;;;;;;6.75;5.38;;;21.20;65.90;;;;;;5074481;28;20492;-77
2021/09/24 11:34:33;;;;;;;7.57;5.40;;;21.20;65.90;;;;;;5074092;28;20024;-78
2021/09/24 11:37:38;;;;;;;8.23;6.10;;;21.30;65.90;;;;;;5074603;28;20419;-78
2021/09/24 11:40:04;;;;;;;6.65;5.47;;;21.30;65.90;;;;;;5061133;28;20037;-77
2021/09/24 11:42:35;;;;;;;6.55;5.10;;;21.40;65.80;;;;;;5074509;28;20021;-77
2021/09/24 11:45:05;;;;;;;6.68;5.35;;;21.40;65.80;;;;;;5073850;28;20036;-79
2021/09/24 11:47:39;;;;;;;7.63;5.57;;;21.40;65.80;;;;;;5073627;28;20384;-79
2021/09/24 11:50:15;;;;;;;6.50;5.13;;;21.50;65.80;;;;;;5056211;28;20081;-79
2021/09/24 11:52:49;;;;;;;6.60;5.30;;;21.50;65.80;;;;;;5073511;28;20075;-79
2021/09/24 11:55:18;;;;;;;6.33;4.97;;;21.60;65.70;;;;;;5073576;28;20422;-77
2021/09/24 11:58:14;;;;;;;6.50;4.90;;;21.60;65.70;;;;;;5072258;28;20359;-76
2021/09/24 12:00:58;;;;;;;6.43;4.95;;;21.60;65.70;;;;;;5072036;28;20024;-76
2021/09/24 12:03:29;;;;;;;6.65;5.00;;;21.60;65.70;;;;;;5056447;28;20036;-76
2021/09/24 12:05:58;;;;;;;6.35;5.47;;;21.70;65.60;;;;;;5055570;28;20116;-76
2021/09/24 12:08:28;;;;;;;7.45;6.18;;;21.70;65.60;;;;;;5073529;28;20031;-77
2021/09/24 12:11:08;;;;;;;6.68;5.35;;;21.70;65.50;;;;;;5079648;28;20079;-77
2021/09/24 12:13:52;;;;;;;6.95;5.18;;;21.80;65.50;;;;;;5093493;28;20107;-77
2021/09/24 12:16:22;;;;;;;6.70;5.35;;;21.80;65.50;;;;;;5093747;28;20032;-80
2021/09/24 12:19:00;;;;;;;6.97;5.65;;;21.80;65.40;;;;;;5075671;28;20032;-77
2021/09/24 12:21:46;;;;;;;7.00;5.82;;;21.90;65.50;;;;;;5075489;28;20556;-77
2021/09/24 12:24:15;;;;;;;7.13;5.57;;;21.90;65.50;;;;;;5093261;28;20032;-76
2021/09/24 12:26:43;;;;;;;6.57;5.50;;;21.90;65.30;;;;;;5075925;28;20535;-78
2021/09/24 12:29:13;;;;;;;7.35;5.85;;;22.00;65.40;;;;;;5075203;28;20028;-77
2021/09/24 12:31:44;;;;;;;6.38;5.47;;;22.00;65.40;;;;;;5075372;28;20056;-78
2021/09/24 12:34:14;;;;;;;7.30;5.80;;;22.00;65.30;;;;;;5075127;28;20028;-77
2021/09/24 12:36:59;;;;;;;6.45;5.18;;;22.10;65.30;;;;;;5075360;28;20077;-77
2021/09/24 12:39:28;;;;;;;6.78;5.53;;;22.10;65.40;;;;;;5075227;28;20032;-78
2021/09/24 12:41:57;;;;;;;6.65;5.65;;;22.10;65.10;;;;;;5075146;28;20034;-77
2021/09/24 12:44:24;;;;;;;6.38;5.20;;;22.10;65.10;;;;;;5093419;28;20060;-78
2021/09/24 12:46:52;;;;;;;6.35;5.13;;;22.20;65.10;;;;;;5074934;28;20341;-78
2021/09/24 12:49:20;;;;;;;6.97;5.63;;;22.20;65.10;;;;;;5074694;28;20032;-78
2021/09/24 12:51:48;;;;;;;6.03;4.85;;;22.20;65.00;;;;;;5074974;28;20040;-77